IBE0105 LEMD-SAEZ
Flight info
| Callsign | IBE0105 |
|---|---|
| Flight time | N/A |
| Altitude | 29000 |
| Route | VTB N10 HIJ N857 KORNO UN857 TERTO N857 DEREV/N0490F300 N857 GUNET DCT OPADU UN857 BOTNO/N0503F320 UN857 AMBET/N0498F340 UN857 EGDED/N0482F360 UN857 MIMOL DCT PAPIX PAPIX7B |
| Aircraft | A346/H-SDE2E3FGHIJ3J4J5M1RWXY/LB1D1 |
Departure
| Time | 2026-05-04 07:01 |
|---|---|
| Airport | Adolfo Suárez Madrid–Barajas Airport (LEMD) |
Arrival
| Time | N/A |
|---|---|
| Airport | Ezeiza International Airport - Ministro Pistarini (SAEZ) |
| Time | Latitude | Longitude | Altitude | Speed | Heading |
|---|---|---|---|---|---|
| 2026-05-04 06:11 | 40.49737 | -3.56882 | 1968 ft | 0 kts | 89° |
| 2026-05-04 06:50 | 40.49737 | -3.56931 | 1968 ft | 2 kts | 89° |
| 2026-05-04 06:51 | 40.49737 | -3.56950 | 1968 ft | 2 kts | 89° |
| 2026-05-04 06:51 | 40.49737 | -3.56970 | 1968 ft | 2 kts | 105° |
| 2026-05-04 06:51 | 40.49744 | -3.56989 | 1968 ft | 2 kts | 132° |
| 2026-05-04 06:51 | 40.49757 | -3.57002 | 1968 ft | 2 kts | 155° |
| 2026-05-04 06:52 | 40.49773 | -3.57007 | 1968 ft | 2 kts | 180° |
| 2026-05-04 06:52 | 40.49789 | -3.57006 | 1968 ft | 2 kts | 183° |
| 2026-05-04 06:52 | 40.49805 | -3.57005 | 1968 ft | 2 kts | 180° |
| 2026-05-04 06:52 | 40.49809 | -3.57005 | 1968 ft | 0 kts | 179° |
| 2026-05-04 06:55 | 40.49803 | -3.57005 | 1968 ft | 1 kts | 179° |
| 2026-05-04 06:55 | 40.49781 | -3.57005 | 1968 ft | 4 kts | 179° |
| 2026-05-04 06:55 | 40.49750 | -3.57016 | 1968 ft | 5 kts | 220° |
| 2026-05-04 06:55 | 40.49738 | -3.57065 | 1968 ft | 6 kts | 263° |
| 2026-05-04 06:56 | 40.49719 | -3.57114 | 1968 ft | 6 kts | 202° |
| 2026-05-04 06:57 | 40.49203 | -3.57121 | 1968 ft | 5 kts | 197° |
| 2026-05-04 06:58 | 40.49181 | -3.57160 | 1968 ft | 6 kts | 257° |
| 2026-05-04 06:58 | 40.49180 | -3.57227 | 1968 ft | 8 kts | 271° |
| 2026-05-04 06:58 | 40.49181 | -3.57309 | 1969 ft | 9 kts | 270° |
| 2026-05-04 06:58 | 40.49181 | -3.57401 | 1969 ft | 8 kts | 268° |
| 2026-05-04 06:59 | 40.49188 | -3.57444 | 1968 ft | 2 kts | 317° |
| 2026-05-04 06:59 | 40.49207 | -3.57457 | 1968 ft | 3 kts | 347° |
| 2026-05-04 06:59 | 40.49236 | -3.57461 | 1969 ft | 2 kts | 358° |
| 2026-05-04 06:59 | 40.49240 | -3.57461 | 1969 ft | 0 kts | 359° |
| 2026-05-04 07:01 | 40.54791 | -3.57512 | 2584 ft | 205 kts | 357° |
| 2026-05-04 07:01 | 40.56147 | -3.58049 | 2911 ft | 209 kts | 322° |
| 2026-05-04 07:02 | 40.57076 | -3.59504 | 3303 ft | 210 kts | 297° |
| 2026-05-04 07:02 | 40.57658 | -3.61263 | 3730 ft | 209 kts | 292° |
| 2026-05-04 07:02 | 40.58549 | -3.62773 | 3900 ft | 217 kts | 323° |
| 2026-05-04 07:02 | 40.59821 | -3.63896 | 4109 ft | 223 kts | 326° |
| 2026-05-04 07:03 | 40.61121 | -3.65030 | 4435 ft | 224 kts | 323° |
| 2026-05-04 07:03 | 40.62377 | -3.66229 | 4783 ft | 225 kts | 321° |
| 2026-05-04 07:03 | 40.63628 | -3.67507 | 5124 ft | 226 kts | 320° |
| 2026-05-04 07:03 | 40.64806 | -3.68840 | 5443 ft | 226 kts | 307° |
| 2026-05-04 07:04 | 40.65376 | -3.70734 | 5711 ft | 222 kts | 269° |
| 2026-05-04 07:04 | 40.65031 | -3.72686 | 5881 ft | 225 kts | 237° |
| 2026-05-04 07:04 | 40.64067 | -3.74371 | 6025 ft | 235 kts | 231° |
| 2026-05-04 07:04 | 40.63032 | -3.76067 | 6331 ft | 240 kts | 226° |
| 2026-05-04 07:05 | 40.61685 | -3.77223 | 6852 ft | 235 kts | 192° |
| 2026-05-04 07:05 | 40.60071 | -3.77267 | 7315 ft | 237 kts | 165° |
| 2026-05-04 07:05 | 40.58569 | -3.76186 | 7541 ft | 253 kts | 134° |
| 2026-05-04 07:05 | 40.57477 | -3.74317 | 7770 ft | 266 kts | 128° |
| 2026-05-04 07:06 | 40.55205 | -3.70247 | 8349 ft | 284 kts | 129° |
| 2026-05-04 07:06 | 40.54024 | -3.68172 | 8816 ft | 285 kts | 129° |
| 2026-05-04 07:06 | 40.52823 | -3.66071 | 9288 ft | 287 kts | 130° |
| 2026-05-04 07:07 | 40.51623 | -3.63977 | 9734 ft | 289 kts | 130° |
| 2026-05-04 07:08 | 40.39579 | -3.54752 | 11876 ft | 320 kts | 176° |
| 2026-05-04 07:09 | 40.37351 | -3.54455 | 12313 ft | 322 kts | 176° |
| 2026-05-04 07:09 | 40.35135 | -3.54155 | 12736 ft | 324 kts | 177° |
| 2026-05-04 07:09 | 40.32864 | -3.53847 | 13005 ft | 331 kts | 177° |
| 2026-05-04 07:09 | 40.30547 | -3.53533 | 13194 ft | 342 kts | 177° |
| 2026-05-04 07:10 | 40.28120 | -3.53206 | 13387 ft | 352 kts | 176° |
| 2026-05-04 07:10 | 40.25642 | -3.52871 | 13577 ft | 362 kts | 177° |
| 2026-05-04 07:12 | 40.07254 | -3.50360 | 16327 ft | 386 kts | 178° |
| 2026-05-04 07:12 | 40.04563 | -3.49996 | 16778 ft | 387 kts | 178° |
| 2026-05-04 07:12 | 40.01908 | -3.49637 | 17188 ft | 389 kts | 178° |
| 2026-05-04 07:12 | 39.99191 | -3.49268 | 17596 ft | 390 kts | 178° |
| 2026-05-04 07:13 | 39.96473 | -3.48901 | 17997 ft | 392 kts | 179° |
| 2026-05-04 07:13 | 39.93753 | -3.48533 | 18414 ft | 393 kts | 179° |
| 2026-05-04 07:13 | 39.91030 | -3.48165 | 18833 ft | 394 kts | 179° |
| 2026-05-04 07:14 | 39.79996 | -3.46678 | 20289 ft | 403 kts | 179° |
| 2026-05-04 07:14 | 39.77177 | -3.46334 | 20648 ft | 402 kts | 183° |
| 2026-05-04 07:15 | 39.74457 | -3.46786 | 20966 ft | 392 kts | 201° |
| 2026-05-04 07:15 | 39.72047 | -3.48258 | 21336 ft | 386 kts | 216° |
| 2026-05-04 07:15 | 39.70028 | -3.50561 | 21662 ft | 385 kts | 230° |
| 2026-05-04 07:15 | 39.68597 | -3.53468 | 21966 ft | 387 kts | 245° |
| 2026-05-04 07:16 | 39.67767 | -3.56823 | 22302 ft | 390 kts | 252° |
| 2026-05-04 07:16 | 39.66852 | -3.60094 | 22617 ft | 389 kts | 241° |
| 2026-05-04 07:16 | 39.65308 | -3.62999 | 22921 ft | 391 kts | 227° |
| 2026-05-04 07:16 | 39.63412 | -3.65493 | 23285 ft | 391 kts | 227° |
| 2026-05-04 07:17 | 39.61537 | -3.68038 | 23589 ft | 393 kts | 227° |
| 2026-05-04 07:17 | 39.59629 | -3.70609 | 23876 ft | 395 kts | 227° |
| 2026-05-04 07:17 | 39.57719 | -3.73144 | 24173 ft | 396 kts | 227° |
| 2026-05-04 07:17 | 39.55774 | -3.75703 | 24476 ft | 398 kts | 226° |
| 2026-05-04 07:18 | 39.53824 | -3.78256 | 24772 ft | 399 kts | 227° |
| 2026-05-04 07:18 | 39.51863 | -3.80822 | 25088 ft | 399 kts | 226° |
| 2026-05-04 07:18 | 39.49898 | -3.83388 | 25379 ft | 400 kts | 226° |
| 2026-05-04 07:18 | 39.47941 | -3.85939 | 25649 ft | 401 kts | 227° |
| 2026-05-04 07:19 | 39.45963 | -3.88516 | 25910 ft | 403 kts | 227° |
| 2026-05-04 07:19 | 39.43999 | -3.91076 | 26159 ft | 404 kts | 227° |
| 2026-05-04 07:19 | 39.42009 | -3.93666 | 26412 ft | 405 kts | 226° |
| 2026-05-04 07:19 | 39.40014 | -3.96261 | 26678 ft | 406 kts | 227° |
| 2026-05-04 07:20 | 39.38023 | -3.98845 | 26903 ft | 408 kts | 227° |
| 2026-05-04 07:20 | 39.36025 | -4.01438 | 27143 ft | 408 kts | 227° |
| 2026-05-04 07:20 | 39.34027 | -4.04028 | 27439 ft | 408 kts | 227° |
| 2026-05-04 07:20 | 39.32014 | -4.06638 | 27719 ft | 408 kts | 227° |
| 2026-05-04 07:22 | 39.17926 | -4.24822 | 28992 ft | 410 kts | 227° |
| 2026-05-04 07:22 | 39.15900 | -4.27429 | 28988 ft | 411 kts | 227° |
| 2026-05-04 07:23 | 39.11855 | -4.32630 | 28996 ft | 411 kts | 227° |
| 2026-05-04 07:23 | 39.07823 | -4.37802 | 28978 ft | 411 kts | 227° |
| 2026-05-04 07:24 | 39.03767 | -4.42997 | 28997 ft | 411 kts | 227° |
| 2026-05-04 07:24 | 38.99697 | -4.48199 | 28994 ft | 410 kts | 227° |
| 2026-05-04 07:26 | 38.83464 | -4.68854 | 29004 ft | 411 kts | 227° |
| 2026-05-04 07:27 | 38.79421 | -4.73975 | 29004 ft | 410 kts | 227° |
| 2026-05-04 07:27 | 38.75358 | -4.79115 | 29001 ft | 410 kts | 227° |
| 2026-05-04 07:28 | 38.71302 | -4.84237 | 29004 ft | 411 kts | 227° |
| 2026-05-04 07:28 | 38.67210 | -4.89394 | 29011 ft | 411 kts | 227° |
| 2026-05-04 07:29 | 38.63141 | -4.94515 | 29007 ft | 411 kts | 227° |
| 2026-05-04 07:29 | 38.59077 | -4.99618 | 29012 ft | 411 kts | 227° |
| 2026-05-04 07:30 | 38.54987 | -5.04745 | 29006 ft | 411 kts | 227° |
| 2026-05-04 07:30 | 38.50547 | -5.09398 | 29011 ft | 416 kts | 219° |
| 2026-05-04 07:31 | 38.45535 | -5.13203 | 29010 ft | 421 kts | 212° |
| 2026-05-04 07:33 | 38.24432 | -5.26348 | 29016 ft | 423 kts | 211° |
| 2026-05-04 07:33 | 38.19143 | -5.29617 | 29013 ft | 424 kts | 211° |
| 2026-05-04 07:34 | 38.13821 | -5.32900 | 29023 ft | 424 kts | 211° |
| 2026-05-04 07:34 | 38.08535 | -5.36156 | 29019 ft | 425 kts | 211° |
| 2026-05-04 07:35 | 38.03197 | -5.39438 | 29024 ft | 425 kts | 211° |
| 2026-05-04 07:35 | 37.97883 | -5.42700 | 29024 ft | 426 kts | 211° |
| 2026-05-04 07:36 | 37.92541 | -5.45974 | 29032 ft | 426 kts | 211° |
| 2026-05-04 07:38 | 37.73793 | -5.57424 | 29379 ft | 431 kts | 211° |
| 2026-05-04 07:38 | 37.71050 | -5.59091 | 29675 ft | 429 kts | 211° |
| 2026-05-04 07:38 | 37.68358 | -5.60725 | 29935 ft | 428 kts | 212° |
| 2026-05-04 07:38 | 37.65682 | -5.62351 | 30016 ft | 429 kts | 212° |
| 2026-05-04 07:39 | 37.60321 | -5.65606 | 30030 ft | 429 kts | 211° |
| 2026-05-04 07:39 | 37.54918 | -5.68880 | 30034 ft | 430 kts | 211° |
| 2026-05-04 07:40 | 37.49515 | -5.72149 | 30035 ft | 430 kts | 211° |
| 2026-05-04 07:40 | 37.44307 | -5.75736 | 30034 ft | 425 kts | 216° |
| 2026-05-04 07:41 | 37.39455 | -5.79921 | 30032 ft | 422 kts | 221° |
| 2026-05-04 07:41 | 37.34924 | -5.84618 | 30032 ft | 421 kts | 224° |
| 2026-05-04 07:42 | 37.30444 | -5.89359 | 30034 ft | 421 kts | 224° |
| 2026-05-04 07:42 | 37.25989 | -5.94075 | 30035 ft | 422 kts | 224° |
| 2026-05-04 07:43 | 37.21507 | -5.98822 | 30034 ft | 422 kts | 224° |
| 2026-05-04 07:43 | 37.16996 | -6.03597 | 30030 ft | 423 kts | 224° |
| 2026-05-04 07:44 | 37.12519 | -6.08327 | 30034 ft | 423 kts | 224° |
| 2026-05-04 07:44 | 37.08004 | -6.13091 | 30034 ft | 423 kts | 224° |
| 2026-05-04 07:45 | 37.03519 | -6.17816 | 30039 ft | 422 kts | 224° |
| 2026-05-04 07:45 | 36.99000 | -6.22568 | 30038 ft | 422 kts | 224° |
| 2026-05-04 07:46 | 36.94514 | -6.27278 | 30039 ft | 422 kts | 224° |
| 2026-05-04 07:46 | 36.90016 | -6.31994 | 30038 ft | 422 kts | 224° |
| 2026-05-04 07:47 | 36.85502 | -6.36718 | 30038 ft | 423 kts | 224° |
| 2026-05-04 07:49 | 36.67452 | -6.55538 | 30058 ft | 424 kts | 224° |
| 2026-05-04 07:49 | 36.62928 | -6.60236 | 30049 ft | 424 kts | 224° |
| 2026-05-04 07:50 | 36.58402 | -6.64927 | 30054 ft | 424 kts | 224° |
| 2026-05-04 07:50 | 36.53863 | -6.69622 | 30066 ft | 424 kts | 224° |
| 2026-05-04 07:51 | 36.49348 | -6.74289 | 30056 ft | 424 kts | 224° |
| 2026-05-04 07:51 | 36.44821 | -6.78962 | 30065 ft | 424 kts | 224° |
| 2026-05-04 07:52 | 36.40274 | -6.83645 | 30056 ft | 424 kts | 224° |
| 2026-05-04 07:52 | 36.35752 | -6.88295 | 30071 ft | 424 kts | 224° |
| 2026-05-04 07:54 | 36.17558 | -7.06928 | 30070 ft | 426 kts | 224° |
| 2026-05-04 07:55 | 36.12985 | -7.11595 | 30064 ft | 425 kts | 224° |
| 2026-05-04 07:55 | 36.08429 | -7.16236 | 30070 ft | 425 kts | 224° |
| 2026-05-04 07:56 | 36.03873 | -7.20868 | 30078 ft | 425 kts | 224° |
| 2026-05-04 07:56 | 35.99321 | -7.25491 | 30065 ft | 425 kts | 224° |
| 2026-05-04 07:57 | 35.94766 | -7.30109 | 30066 ft | 425 kts | 224° |
| 2026-05-04 07:57 | 35.90205 | -7.34725 | 30067 ft | 424 kts | 224° |
| 2026-05-04 07:58 | 35.85635 | -7.39342 | 30071 ft | 425 kts | 224° |
| 2026-05-04 07:58 | 35.81063 | -7.43946 | 30067 ft | 426 kts | 224° |
| 2026-05-04 07:59 | 35.76470 | -7.48532 | 30071 ft | 427 kts | 224° |
| 2026-05-04 07:59 | 35.71848 | -7.53142 | 30068 ft | 428 kts | 224° |
| 2026-05-04 08:00 | 35.67204 | -7.57765 | 30070 ft | 428 kts | 224° |
| 2026-05-04 08:02 | 35.48636 | -7.76178 | 30069 ft | 430 kts | 223° |
| 2026-05-04 08:02 | 35.43991 | -7.80766 | 30067 ft | 430 kts | 223° |
| 2026-05-04 08:03 | 35.39323 | -7.85389 | 30069 ft | 430 kts | 224° |
| 2026-05-04 08:03 | 35.34687 | -7.90034 | 30067 ft | 431 kts | 224° |
| 2026-05-04 08:04 | 35.30061 | -7.94661 | 30067 ft | 431 kts | 224° |
| 2026-05-04 08:04 | 35.25405 | -7.99306 | 30068 ft | 431 kts | 224° |
| 2026-05-04 08:05 | 35.20764 | -8.03928 | 30069 ft | 432 kts | 224° |
| 2026-05-04 08:05 | 35.16124 | -8.08541 | 30066 ft | 433 kts | 224° |
| 2026-05-04 08:06 | 35.11451 | -8.13180 | 30067 ft | 434 kts | 224° |
| 2026-05-04 08:06 | 35.06765 | -8.17825 | 30070 ft | 434 kts | 224° |
| 2026-05-04 08:08 | 34.87987 | -8.36361 | 30073 ft | 435 kts | 224° |
| 2026-05-04 08:11 | 34.66839 | -8.57105 | 30077 ft | 433 kts | 224° |
| 2026-05-04 08:11 | 34.59821 | -8.63957 | 30078 ft | 433 kts | 224° |
| 2026-05-04 08:12 | 34.55112 | -8.68545 | 30082 ft | 433 kts | 224° |
| 2026-05-04 08:12 | 34.50423 | -8.73109 | 30085 ft | 434 kts | 224° |
| 2026-05-04 08:13 | 34.45725 | -8.77675 | 30080 ft | 435 kts | 224° |
| 2026-05-04 08:13 | 34.40990 | -8.82252 | 30083 ft | 433 kts | 224° |
| 2026-05-04 08:14 | 34.36268 | -8.86795 | 30084 ft | 435 kts | 223° |
| 2026-05-04 08:16 | 34.17408 | -9.04865 | 30081 ft | 434 kts | 223° |
| 2026-05-04 08:16 | 34.12690 | -9.09366 | 30093 ft | 433 kts | 224° |
| 2026-05-04 08:17 | 34.07959 | -9.13880 | 30089 ft | 433 kts | 224° |
| 2026-05-04 08:17 | 34.03230 | -9.18380 | 30088 ft | 434 kts | 224° |
| 2026-05-04 08:19 | 33.84256 | -9.36377 | 30089 ft | 435 kts | 224° |
| 2026-05-04 08:20 | 33.79483 | -9.40887 | 30091 ft | 436 kts | 224° |
| 2026-05-04 08:20 | 33.74700 | -9.45404 | 30090 ft | 436 kts | 224° |
| 2026-05-04 08:21 | 33.69955 | -9.49874 | 30086 ft | 437 kts | 224° |
| 2026-05-04 08:21 | 33.65156 | -9.54391 | 30095 ft | 437 kts | 224° |
| 2026-05-04 08:22 | 33.60390 | -9.58867 | 30091 ft | 437 kts | 224° |
| 2026-05-04 08:24 | 33.41181 | -9.76850 | 30088 ft | 440 kts | 223° |
| 2026-05-04 08:24 | 33.36353 | -9.81354 | 30088 ft | 440 kts | 223° |
| 2026-05-04 08:25 | 33.31527 | -9.85848 | 30094 ft | 439 kts | 223° |
| 2026-05-04 08:25 | 33.26713 | -9.90323 | 30090 ft | 440 kts | 223° |
| 2026-05-04 08:27 | 33.07312 | -10.08300 | 30106 ft | 442 kts | 223° |
| 2026-05-04 08:28 | 33.02472 | -10.12768 | 30103 ft | 442 kts | 223° |
| 2026-05-04 08:28 | 32.97612 | -10.17248 | 30108 ft | 442 kts | 223° |
| 2026-05-04 08:29 | 32.92730 | -10.21743 | 30106 ft | 443 kts | 223° |
| 2026-05-04 08:31 | 32.73167 | -10.39668 | 30100 ft | 445 kts | 222° |
| 2026-05-04 08:33 | 32.53556 | -10.57533 | 30091 ft | 447 kts | 222° |
| 2026-05-04 08:35 | 32.33780 | -10.75448 | 30096 ft | 448 kts | 221° |
| 2026-05-04 08:35 | 32.28840 | -10.79906 | 30094 ft | 447 kts | 221° |
| 2026-05-04 08:37 | 32.11505 | -10.95505 | 30094 ft | 449 kts | 220° |
| 2026-05-04 08:38 | 32.06543 | -10.99953 | 30092 ft | 449 kts | 221° |
| 2026-05-04 08:38 | 32.01564 | -11.04414 | 30094 ft | 450 kts | 220° |
| 2026-05-04 08:40 | 31.81604 | -11.22226 | 30079 ft | 450 kts | 220° |
| 2026-05-04 08:41 | 31.76616 | -11.26661 | 30089 ft | 451 kts | 220° |
| 2026-05-04 08:41 | 31.71590 | -11.31139 | 30092 ft | 451 kts | 221° |
| 2026-05-04 08:42 | 31.66606 | -11.35588 | 30095 ft | 451 kts | 221° |
| 2026-05-04 08:42 | 31.61635 | -11.40017 | 30094 ft | 451 kts | 221° |
| 2026-05-04 08:43 | 31.56644 | -11.44455 | 30095 ft | 450 kts | 220° |
| 2026-05-04 08:43 | 31.51634 | -11.48902 | 30097 ft | 450 kts | 221° |
| 2026-05-04 08:44 | 31.46672 | -11.53301 | 30095 ft | 449 kts | 221° |
| 2026-05-04 08:46 | 31.26693 | -11.70958 | 30102 ft | 451 kts | 220° |
| 2026-05-04 08:46 | 31.21704 | -11.75351 | 30102 ft | 449 kts | 220° |
| 2026-05-04 08:47 | 31.16705 | -11.79745 | 30102 ft | 449 kts | 220° |
| 2026-05-04 08:47 | 31.11728 | -11.84116 | 30109 ft | 449 kts | 220° |
| 2026-05-04 08:48 | 31.06715 | -11.88512 | 30107 ft | 449 kts | 220° |
| 2026-05-04 08:48 | 31.01720 | -11.92886 | 30108 ft | 449 kts | 220° |
| 2026-05-04 08:49 | 30.96748 | -11.97234 | 30107 ft | 449 kts | 220° |
| 2026-05-04 08:50 | 30.79342 | -12.12415 | 30097 ft | 445 kts | 220° |
| 2026-05-04 08:51 | 30.74385 | -12.16722 | 30101 ft | 445 kts | 220° |
| 2026-05-04 08:51 | 30.69412 | -12.21040 | 30101 ft | 445 kts | 220° |
| 2026-05-04 08:52 | 30.64458 | -12.25336 | 30101 ft | 445 kts | 221° |
| 2026-05-04 08:52 | 30.59472 | -12.29652 | 30101 ft | 445 kts | 221° |
| 2026-05-04 08:54 | 30.39693 | -12.46700 | 30097 ft | 442 kts | 221° |
| 2026-05-04 08:55 | 30.34756 | -12.50932 | 30093 ft | 441 kts | 221° |
| 2026-05-04 08:55 | 30.29800 | -12.55175 | 30095 ft | 441 kts | 221° |
| 2026-05-04 09:01 | 29.78081 | -12.99292 | 30087 ft | 437 kts | 221° |
| 2026-05-04 09:01 | 29.73134 | -13.03488 | 30089 ft | 436 kts | 221° |
| 2026-05-04 09:02 | 29.68212 | -13.07658 | 30090 ft | 435 kts | 221° |
| 2026-05-04 09:02 | 29.63310 | -13.11807 | 30090 ft | 434 kts | 221° |
| 2026-05-04 09:03 | 29.58355 | -13.15996 | 30089 ft | 434 kts | 221° |
| 2026-05-04 09:03 | 29.53425 | -13.20157 | 30096 ft | 433 kts | 221° |
| 2026-05-04 09:04 | 29.48501 | -13.24307 | 30099 ft | 433 kts | 221° |
| 2026-05-04 09:04 | 29.43603 | -13.28431 | 30098 ft | 433 kts | 221° |
| 2026-05-04 09:05 | 29.38673 | -13.32578 | 30102 ft | 433 kts | 221° |
| 2026-05-04 09:05 | 29.33742 | -13.36718 | 30097 ft | 433 kts | 221° |
| 2026-05-04 09:06 | 29.28817 | -13.40849 | 30100 ft | 432 kts | 221° |
| 2026-05-04 09:08 | 29.08676 | -13.56729 | 30088 ft | 435 kts | 217° |
| 2026-05-04 09:08 | 29.03513 | -13.60420 | 30088 ft | 434 kts | 217° |
| 2026-05-04 09:09 | 28.98386 | -13.64080 | 30092 ft | 434 kts | 217° |
| 2026-05-04 09:09 | 28.93276 | -13.67719 | 30094 ft | 434 kts | 217° |
| 2026-05-04 09:10 | 28.88114 | -13.71390 | 30093 ft | 435 kts | 217° |
| 2026-05-04 09:10 | 28.82989 | -13.75032 | 30086 ft | 435 kts | 217° |
| 2026-05-04 09:11 | 28.77839 | -13.78683 | 30085 ft | 435 kts | 217° |
| 2026-05-04 09:11 | 28.72711 | -13.82316 | 30081 ft | 435 kts | 217° |
| 2026-05-04 09:12 | 28.67587 | -13.85944 | 30082 ft | 434 kts | 217° |
| 2026-05-04 09:14 | 28.47033 | -14.00445 | 30092 ft | 434 kts | 217° |
| 2026-05-04 09:14 | 28.41875 | -14.04074 | 30089 ft | 434 kts | 217° |
| 2026-05-04 09:15 | 28.36767 | -14.07663 | 30086 ft | 434 kts | 217° |
| 2026-05-04 09:15 | 28.31637 | -14.11266 | 30084 ft | 432 kts | 217° |
| 2026-05-04 09:17 | 28.08594 | -14.27392 | 30071 ft | 431 kts | 217° |
| 2026-05-04 09:18 | 28.03463 | -14.30969 | 30072 ft | 430 kts | 217° |
| 2026-05-04 09:18 | 27.98365 | -14.34520 | 30070 ft | 430 kts | 217° |
| 2026-05-04 09:19 | 27.93276 | -14.38065 | 30072 ft | 430 kts | 217° |
| 2026-05-04 09:19 | 27.88158 | -14.41621 | 30071 ft | 431 kts | 217° |
| 2026-05-04 09:20 | 27.83043 | -14.45178 | 30070 ft | 432 kts | 217° |
| 2026-05-04 09:20 | 27.77925 | -14.48725 | 30071 ft | 432 kts | 217° |
| 2026-05-04 09:21 | 27.72821 | -14.52260 | 30068 ft | 432 kts | 217° |
| 2026-05-04 09:21 | 27.67670 | -14.55828 | 30068 ft | 432 kts | 217° |
| 2026-05-04 09:22 | 27.62581 | -14.59345 | 30068 ft | 432 kts | 217° |
| 2026-05-04 09:22 | 27.57464 | -14.62878 | 30066 ft | 431 kts | 217° |
| 2026-05-04 09:23 | 27.52310 | -14.66432 | 30070 ft | 432 kts | 217° |
| 2026-05-04 09:23 | 27.47198 | -14.69956 | 30066 ft | 432 kts | 217° |
| 2026-05-04 09:25 | 27.26650 | -14.84073 | 30067 ft | 433 kts | 217° |
| 2026-05-04 09:26 | 27.21551 | -14.87569 | 30066 ft | 432 kts | 216° |
| 2026-05-04 09:26 | 27.16424 | -14.91078 | 30067 ft | 431 kts | 217° |
| 2026-05-04 09:27 | 27.11304 | -14.94581 | 30066 ft | 431 kts | 216° |
| 2026-05-04 09:27 | 27.06157 | -14.98096 | 30068 ft | 432 kts | 216° |
| 2026-05-04 09:28 | 27.01034 | -15.01590 | 30069 ft | 432 kts | 216° |
| 2026-05-04 09:28 | 26.95884 | -15.05099 | 30065 ft | 434 kts | 217° |
| 2026-05-04 09:29 | 26.90719 | -15.08614 | 30060 ft | 434 kts | 217° |
| 2026-05-04 09:29 | 26.85572 | -15.12114 | 30062 ft | 433 kts | 217° |
| 2026-05-04 09:30 | 26.80386 | -15.15636 | 30058 ft | 435 kts | 217° |
| 2026-05-04 09:30 | 26.75236 | -15.19129 | 30056 ft | 434 kts | 217° |
| 2026-05-04 09:31 | 26.70068 | -15.22633 | 30060 ft | 433 kts | 216° |
| 2026-05-04 09:31 | 26.64910 | -15.26129 | 30058 ft | 433 kts | 217° |
| 2026-05-04 09:32 | 26.59783 | -15.29600 | 30055 ft | 433 kts | 217° |
| 2026-05-04 09:34 | 26.39118 | -15.43543 | 30053 ft | 435 kts | 217° |
| 2026-05-04 09:34 | 26.33934 | -15.47031 | 30055 ft | 434 kts | 216° |
| 2026-05-04 09:35 | 26.28754 | -15.50513 | 30053 ft | 434 kts | 217° |
| 2026-05-04 09:35 | 26.23571 | -15.53993 | 30052 ft | 434 kts | 217° |
| 2026-05-04 09:37 | 26.02889 | -15.67842 | 30047 ft | 435 kts | 216° |
| 2026-05-04 09:38 | 25.97710 | -15.71301 | 30047 ft | 436 kts | 216° |
| 2026-05-04 09:38 | 25.92500 | -15.74777 | 30046 ft | 437 kts | 216° |
| 2026-05-04 09:39 | 25.87291 | -15.78250 | 30045 ft | 437 kts | 216° |
| 2026-05-04 09:39 | 25.82050 | -15.81739 | 30044 ft | 437 kts | 216° |
| 2026-05-04 09:40 | 25.76843 | -15.85202 | 30044 ft | 436 kts | 216° |
| 2026-05-04 09:40 | 25.71671 | -15.88637 | 30042 ft | 435 kts | 216° |
| 2026-05-04 09:42 | 25.50866 | -16.02427 | 30023 ft | 437 kts | 216° |
| 2026-05-04 09:43 | 25.45651 | -16.05875 | 30026 ft | 437 kts | 216° |
| 2026-05-04 09:43 | 25.40426 | -16.09325 | 30024 ft | 437 kts | 216° |
| 2026-05-04 09:44 | 25.35183 | -16.12782 | 30024 ft | 437 kts | 216° |
| 2026-05-04 09:46 | 25.14301 | -16.26520 | 30021 ft | 438 kts | 216° |
| 2026-05-04 09:46 | 25.09073 | -16.29950 | 30023 ft | 438 kts | 216° |
| 2026-05-04 09:47 | 25.03815 | -16.33395 | 30023 ft | 438 kts | 216° |
| 2026-05-04 09:49 | 24.82852 | -16.47114 | 30014 ft | 438 kts | 216° |
| 2026-05-04 09:51 | 24.64471 | -16.59088 | 30016 ft | 439 kts | 216° |
| 2026-05-04 09:51 | 24.59232 | -16.62495 | 30011 ft | 440 kts | 216° |
| 2026-05-04 09:52 | 24.53948 | -16.65927 | 30016 ft | 440 kts | 215° |
| 2026-05-04 09:52 | 24.48671 | -16.69349 | 30013 ft | 441 kts | 215° |
| 2026-05-04 09:53 | 24.43397 | -16.72769 | 30014 ft | 441 kts | 215° |
| 2026-05-04 09:53 | 24.38110 | -16.76191 | 30013 ft | 441 kts | 215° |
| 2026-05-04 09:54 | 24.32846 | -16.79597 | 30012 ft | 441 kts | 214° |
| 2026-05-04 09:54 | 24.27549 | -16.83019 | 30008 ft | 442 kts | 215° |
| 2026-05-04 09:55 | 24.22245 | -16.86443 | 30008 ft | 441 kts | 215° |
| 2026-05-04 09:55 | 24.16962 | -16.89849 | 30008 ft | 442 kts | 214° |
| 2026-05-04 09:56 | 24.11630 | -16.93284 | 30009 ft | 442 kts | 215° |
| 2026-05-04 09:56 | 24.06350 | -16.96683 | 30007 ft | 443 kts | 215° |
| 2026-05-04 09:57 | 24.01039 | -17.00099 | 30005 ft | 443 kts | 215° |
| 2026-05-04 09:57 | 23.95723 | -17.03514 | 30006 ft | 443 kts | 215° |
| 2026-05-04 09:58 | 23.90388 | -17.06940 | 30004 ft | 443 kts | 214° |
| 2026-05-04 09:58 | 23.85105 | -17.10327 | 30005 ft | 442 kts | 214° |
| 2026-05-04 10:00 | 23.63820 | -17.23944 | 30002 ft | 444 kts | 214° |
| 2026-05-04 10:04 | 23.26524 | -17.47674 | 30000 ft | 444 kts | 214° |
| 2026-05-04 10:04 | 23.21193 | -17.51053 | 29999 ft | 444 kts | 214° |
| 2026-05-04 10:05 | 23.15855 | -17.54435 | 29999 ft | 444 kts | 214° |
| 2026-05-04 10:05 | 23.10508 | -17.57816 | 29993 ft | 444 kts | 214° |
| 2026-05-04 10:06 | 23.05166 | -17.61195 | 29992 ft | 445 kts | 214° |
| 2026-05-04 10:06 | 22.99812 | -17.64576 | 29994 ft | 444 kts | 214° |
| 2026-05-04 10:08 | 22.81036 | -17.76411 | 29996 ft | 446 kts | 213° |
| 2026-05-04 10:08 | 22.75690 | -17.79772 | 29990 ft | 447 kts | 213° |
| 2026-05-04 10:09 | 22.70295 | -17.83163 | 29992 ft | 446 kts | 213° |
| 2026-05-04 10:09 | 22.64928 | -17.86532 | 29990 ft | 445 kts | 213° |
| 2026-05-04 10:10 | 22.59597 | -17.89874 | 29994 ft | 446 kts | 214° |
| 2026-05-04 10:10 | 22.54204 | -17.93256 | 29991 ft | 446 kts | 213° |
| 2026-05-04 10:11 | 22.48850 | -17.96606 | 29988 ft | 446 kts | 213° |
| 2026-05-04 10:11 | 22.43467 | -17.99974 | 29988 ft | 447 kts | 213° |
| 2026-05-04 10:12 | 22.38075 | -18.03343 | 29978 ft | 447 kts | 213° |
| 2026-05-04 10:12 | 22.32719 | -18.06688 | 29977 ft | 447 kts | 213° |
| 2026-05-04 10:13 | 22.27328 | -18.10052 | 29974 ft | 447 kts | 213° |
| 2026-05-04 10:13 | 22.21923 | -18.13420 | 29975 ft | 447 kts | 213° |
| 2026-05-04 10:14 | 22.16535 | -18.16775 | 29972 ft | 447 kts | 213° |
| 2026-05-04 10:16 | 21.94979 | -18.30167 | 29970 ft | 447 kts | 213° |
| 2026-05-04 10:16 | 21.89568 | -18.33522 | 29970 ft | 448 kts | 213° |
| 2026-05-04 10:17 | 21.84170 | -18.36865 | 29973 ft | 447 kts | 213° |
| 2026-05-04 10:19 | 21.62633 | -18.50174 | 29963 ft | 445 kts | 213° |
| 2026-05-04 10:19 | 21.57274 | -18.53478 | 29968 ft | 445 kts | 213° |
| 2026-05-04 10:20 | 21.51904 | -18.56787 | 29966 ft | 444 kts | 213° |
| 2026-05-04 10:20 | 21.46560 | -18.60074 | 29965 ft | 444 kts | 213° |
| 2026-05-04 10:21 | 21.41174 | -18.63386 | 29968 ft | 445 kts | 213° |
| 2026-05-04 10:21 | 21.35805 | -18.66683 | 29966 ft | 444 kts | 213° |
| 2026-05-04 10:22 | 21.27747 | -18.71635 | 29965 ft | 443 kts | 213° |
| 2026-05-04 10:23 | 21.22397 | -18.74917 | 29962 ft | 443 kts | 213° |
| 2026-05-04 10:25 | 21.01031 | -18.87993 | 29961 ft | 442 kts | 213° |
| 2026-05-04 10:25 | 20.95709 | -18.91241 | 29963 ft | 442 kts | 213° |
| 2026-05-04 10:26 | 20.90334 | -18.94522 | 29962 ft | 442 kts | 213° |
| 2026-05-04 10:26 | 20.84996 | -18.97778 | 29963 ft | 442 kts | 213° |
| 2026-05-04 10:27 | 20.79652 | -19.01030 | 29968 ft | 442 kts | 213° |
| 2026-05-04 10:27 | 20.74301 | -19.04288 | 29972 ft | 441 kts | 213° |
| 2026-05-04 10:28 | 20.68978 | -19.07522 | 29973 ft | 442 kts | 213° |
| 2026-05-04 10:28 | 20.63631 | -19.10772 | 29975 ft | 443 kts | 213° |
| 2026-05-04 10:29 | 20.58260 | -19.14033 | 29971 ft | 443 kts | 213° |
| 2026-05-04 10:29 | 20.52890 | -19.17290 | 29971 ft | 442 kts | 213° |
| 2026-05-04 10:30 | 20.47555 | -19.20523 | 29969 ft | 443 kts | 213° |
| 2026-05-04 10:30 | 20.42180 | -19.23778 | 29965 ft | 443 kts | 213° |
| 2026-05-04 10:31 | 20.36842 | -19.27008 | 29964 ft | 443 kts | 213° |
| 2026-05-04 10:32 | 20.18070 | -19.38346 | 29960 ft | 443 kts | 213° |
| 2026-05-04 10:33 | 20.12686 | -19.41590 | 29963 ft | 443 kts | 212° |
| 2026-05-04 10:33 | 20.07315 | -19.44823 | 29964 ft | 444 kts | 213° |
| 2026-05-04 10:34 | 20.01934 | -19.48063 | 29964 ft | 443 kts | 213° |
| 2026-05-04 10:34 | 19.96570 | -19.51290 | 29963 ft | 443 kts | 212° |
| 2026-05-04 10:35 | 19.91225 | -19.54501 | 29971 ft | 443 kts | 212° |
| 2026-05-04 10:35 | 19.85823 | -19.57744 | 29975 ft | 444 kts | 212° |
| 2026-05-04 10:36 | 19.80439 | -19.60974 | 29971 ft | 445 kts | 212° |
| 2026-05-04 10:36 | 19.75034 | -19.64213 | 29973 ft | 445 kts | 212° |
| 2026-05-04 10:37 | 19.69625 | -19.67452 | 29974 ft | 445 kts | 212° |
| 2026-05-04 10:37 | 19.64254 | -19.70662 | 29973 ft | 445 kts | 212° |
| 2026-05-04 10:39 | 19.45317 | -19.81995 | 29971 ft | 446 kts | 212° |
| 2026-05-04 10:40 | 19.39933 | -19.85209 | 29971 ft | 447 kts | 212° |
| 2026-05-04 10:40 | 19.34502 | -19.88448 | 29971 ft | 446 kts | 212° |
| 2026-05-04 10:41 | 19.29066 | -19.91690 | 29966 ft | 448 kts | 212° |
| 2026-05-04 10:41 | 19.23650 | -19.94916 | 29966 ft | 448 kts | 212° |
| 2026-05-04 10:42 | 19.18200 | -19.98158 | 29964 ft | 449 kts | 212° |
| 2026-05-04 10:42 | 19.12759 | -20.01394 | 29964 ft | 448 kts | 212° |
| 2026-05-04 10:43 | 19.07311 | -20.04631 | 29964 ft | 449 kts | 212° |
| 2026-05-04 10:45 | 18.85525 | -20.17548 | 29969 ft | 449 kts | 212° |
| 2026-05-04 10:45 | 18.80067 | -20.20778 | 29965 ft | 449 kts | 212° |
| 2026-05-04 10:46 | 18.74612 | -20.24004 | 29966 ft | 449 kts | 212° |
| 2026-05-04 10:46 | 18.69137 | -20.27242 | 29966 ft | 450 kts | 212° |
| 2026-05-04 10:47 | 18.63679 | -20.30464 | 29970 ft | 452 kts | 212° |
| 2026-05-04 10:47 | 18.58183 | -20.33707 | 29967 ft | 451 kts | 212° |
| 2026-05-04 10:49 | 18.36318 | -20.46585 | 29976 ft | 449 kts | 212° |
| 2026-05-04 10:50 | 18.30876 | -20.49785 | 29979 ft | 450 kts | 212° |
| 2026-05-04 10:52 | 18.08971 | -20.62641 | 29975 ft | 451 kts | 212° |
| 2026-05-04 10:52 | 18.03494 | -20.65850 | 29979 ft | 451 kts | 211° |
| 2026-05-04 10:54 | 17.84128 | -20.77172 | 31268 ft | 452 kts | 212° |
| 2026-05-04 10:54 | 17.81395 | -20.78767 | 31597 ft | 450 kts | 212° |
| 2026-05-04 10:56 | 17.62254 | -20.89934 | 31985 ft | 449 kts | 212° |
| 2026-05-04 10:56 | 17.59511 | -20.91533 | 31982 ft | 449 kts | 212° |
| 2026-05-04 10:57 | 17.54048 | -20.94711 | 31986 ft | 448 kts | 212° |
| 2026-05-04 10:57 | 17.48594 | -20.97885 | 31984 ft | 449 kts | 212° |
| 2026-05-04 10:58 | 17.43141 | -21.01053 | 31986 ft | 449 kts | 212° |
| 2026-05-04 10:58 | 17.37670 | -21.04232 | 31983 ft | 449 kts | 212° |
| 2026-05-04 10:59 | 17.32202 | -21.07405 | 31983 ft | 449 kts | 212° |
| 2026-05-04 10:59 | 17.26705 | -21.10595 | 31983 ft | 450 kts | 212° |
| 2026-05-04 11:00 | 17.21234 | -21.13764 | 31980 ft | 451 kts | 212° |
| 2026-05-04 11:02 | 16.99255 | -21.26483 | 31969 ft | 450 kts | 212° |
| 2026-05-04 11:05 | 16.58019 | -21.50254 | 31973 ft | 452 kts | 212° |
| 2026-05-04 11:06 | 16.52528 | -21.53409 | 31967 ft | 452 kts | 212° |
| 2026-05-04 11:06 | 16.46998 | -21.56584 | 31973 ft | 452 kts | 212° |
| 2026-05-04 11:10 | 16.08318 | -21.78740 | 31977 ft | 455 kts | 212° |
| 2026-05-04 11:12 | 15.86120 | -21.91411 | 31978 ft | 455 kts | 213° |
| 2026-05-04 11:12 | 15.80546 | -21.94588 | 31979 ft | 456 kts | 213° |
| 2026-05-04 11:13 | 15.74976 | -21.97760 | 31975 ft | 456 kts | 212° |
| 2026-05-04 11:13 | 15.69416 | -22.00925 | 31970 ft | 456 kts | 212° |
| 2026-05-04 11:14 | 15.63862 | -22.04078 | 31967 ft | 456 kts | 212° |
| 2026-05-04 11:16 | 15.41495 | -22.16769 | 31966 ft | 457 kts | 212° |
| 2026-05-04 11:16 | 15.35917 | -22.19928 | 31969 ft | 458 kts | 212° |
| 2026-05-04 11:17 | 15.30305 | -22.23106 | 31966 ft | 458 kts | 212° |
| 2026-05-04 11:19 | 15.07954 | -22.35741 | 31970 ft | 458 kts | 212° |
| 2026-05-04 11:19 | 15.02349 | -22.38904 | 31973 ft | 458 kts | 212° |
| 2026-05-04 11:20 | 14.96727 | -22.42075 | 31972 ft | 459 kts | 212° |
| 2026-05-04 11:20 | 14.91127 | -22.45231 | 31976 ft | 459 kts | 212° |
| 2026-05-04 11:22 | 14.68687 | -22.57862 | 31977 ft | 459 kts | 212° |
| 2026-05-04 11:23 | 14.63061 | -22.61025 | 31978 ft | 459 kts | 212° |
| 2026-05-04 11:25 | 14.43371 | -22.72077 | 31982 ft | 461 kts | 212° |
| 2026-05-04 11:25 | 14.37734 | -22.75238 | 31983 ft | 461 kts | 212° |
| 2026-05-04 11:27 | 14.12337 | -22.89452 | 31985 ft | 461 kts | 212° |
| 2026-05-04 11:28 | 14.06688 | -22.92607 | 31985 ft | 461 kts | 212° |
| 2026-05-04 11:28 | 14.01058 | -22.95750 | 31985 ft | 462 kts | 212° |
| 2026-05-04 11:29 | 13.95373 | -22.98924 | 31985 ft | 462 kts | 212° |
| 2026-05-04 11:29 | 13.89714 | -23.02082 | 31985 ft | 462 kts | 212° |
| 2026-05-04 11:33 | 13.49986 | -23.24182 | 31985 ft | 464 kts | 212° |
| 2026-05-04 11:33 | 13.44338 | -23.27330 | 31986 ft | 464 kts | 212° |
| 2026-05-04 11:34 | 13.38626 | -23.30511 | 31983 ft | 464 kts | 212° |
| 2026-05-04 11:34 | 13.32976 | -23.33652 | 31982 ft | 464 kts | 212° |
| 2026-05-04 11:35 | 13.27276 | -23.36817 | 31983 ft | 465 kts | 212° |
| 2026-05-04 11:35 | 13.21567 | -23.39986 | 31984 ft | 464 kts | 212° |
| 2026-05-04 11:36 | 13.15885 | -23.43136 | 31980 ft | 463 kts | 212° |
| 2026-05-04 11:36 | 13.10223 | -23.46274 | 31977 ft | 464 kts | 212° |
| 2026-05-04 11:37 | 13.04537 | -23.49423 | 31976 ft | 465 kts | 212° |
| 2026-05-04 11:37 | 12.98838 | -23.52581 | 31975 ft | 466 kts | 212° |
| 2026-05-04 11:38 | 12.93099 | -23.55755 | 31973 ft | 466 kts | 212° |
| 2026-05-04 11:38 | 12.87396 | -23.58908 | 31976 ft | 466 kts | 212° |
| 2026-05-04 11:39 | 12.81681 | -23.62069 | 31976 ft | 466 kts | 212° |
| 2026-05-04 11:41 | 12.61717 | -23.73091 | 31974 ft | 466 kts | 212° |
| 2026-05-04 11:41 | 12.55995 | -23.76248 | 31979 ft | 466 kts | 212° |
| 2026-05-04 11:42 | 12.50291 | -23.79391 | 31978 ft | 466 kts | 212° |
| 2026-05-04 11:42 | 12.44545 | -23.82556 | 31979 ft | 467 kts | 212° |
| 2026-05-04 11:43 | 12.38817 | -23.85712 | 31982 ft | 467 kts | 212° |
| 2026-05-04 11:43 | 12.33085 | -23.88867 | 31982 ft | 467 kts | 212° |
| 2026-05-04 11:44 | 12.27362 | -23.92015 | 31983 ft | 467 kts | 212° |
| 2026-05-04 11:44 | 12.21664 | -23.95149 | 31982 ft | 467 kts | 212° |
| 2026-05-04 11:45 | 12.15929 | -23.98301 | 31982 ft | 467 kts | 212° |
| 2026-05-04 11:45 | 12.10197 | -24.01447 | 31985 ft | 467 kts | 212° |
| 2026-05-04 11:46 | 12.04448 | -24.04606 | 31983 ft | 468 kts | 212° |
| 2026-05-04 11:46 | 11.98696 | -24.07762 | 31983 ft | 469 kts | 212° |
| 2026-05-04 11:47 | 11.92934 | -24.10921 | 31981 ft | 468 kts | 212° |
| 2026-05-04 11:47 | 11.87186 | -24.14074 | 31981 ft | 468 kts | 212° |
| 2026-05-04 11:48 | 11.81454 | -24.17213 | 31980 ft | 467 kts | 212° |
| 2026-05-04 11:48 | 11.75723 | -24.20353 | 31972 ft | 468 kts | 212° |
| 2026-05-04 11:49 | 11.69985 | -24.23493 | 31969 ft | 467 kts | 212° |
| 2026-05-04 11:49 | 11.64234 | -24.26640 | 31969 ft | 468 kts | 212° |
| 2026-05-04 11:50 | 11.58469 | -24.29795 | 31969 ft | 469 kts | 212° |
| 2026-05-04 11:50 | 11.52716 | -24.32939 | 31973 ft | 469 kts | 212° |
| 2026-05-04 11:51 | 11.46985 | -24.36069 | 31979 ft | 468 kts | 212° |
| 2026-05-04 11:51 | 11.41212 | -24.39223 | 31984 ft | 468 kts | 212° |
| 2026-05-04 11:52 | 11.35469 | -24.42359 | 31990 ft | 469 kts | 212° |
| 2026-05-04 11:52 | 11.29689 | -24.45513 | 31989 ft | 469 kts | 212° |
| 2026-05-04 11:53 | 11.23959 | -24.48637 | 31985 ft | 469 kts | 212° |
| 2026-05-04 11:53 | 11.18194 | -24.51780 | 31985 ft | 469 kts | 212° |
| 2026-05-04 11:55 | 10.95162 | -24.64321 | 31986 ft | 467 kts | 212° |
| 2026-05-04 11:56 | 10.89424 | -24.67443 | 31987 ft | 467 kts | 212° |
| 2026-05-04 11:56 | 10.83673 | -24.70571 | 31988 ft | 468 kts | 212° |
| 2026-05-04 11:57 | 10.77924 | -24.73694 | 31985 ft | 468 kts | 212° |
| 2026-05-04 11:57 | 10.72173 | -24.76818 | 31987 ft | 469 kts | 212° |
| 2026-05-04 11:58 | 10.66413 | -24.79946 | 31985 ft | 469 kts | 212° |
| 2026-05-04 11:58 | 10.60659 | -24.83071 | 31988 ft | 470 kts | 211° |
| 2026-05-04 11:59 | 10.54895 | -24.86196 | 31988 ft | 469 kts | 211° |
| 2026-05-04 11:59 | 10.49117 | -24.89328 | 31987 ft | 471 kts | 211° |
| 2026-05-04 12:00 | 10.43334 | -24.92462 | 31986 ft | 470 kts | 211° |
| 2026-05-04 12:00 | 10.37557 | -24.95592 | 31986 ft | 471 kts | 211° |
| 2026-05-04 12:01 | 10.31767 | -24.98726 | 31988 ft | 470 kts | 211° |
| 2026-05-04 12:02 | 10.11502 | -25.09689 | 31987 ft | 472 kts | 211° |
| 2026-05-04 12:03 | 10.05672 | -25.12838 | 31994 ft | 472 kts | 211° |
| 2026-05-04 12:03 | 9.99905 | -25.15951 | 31993 ft | 472 kts | 211° |
| 2026-05-04 12:04 | 9.94063 | -25.19103 | 31988 ft | 472 kts | 211° |
| 2026-05-04 12:04 | 9.88263 | -25.22235 | 31993 ft | 472 kts | 211° |
| 2026-05-04 12:05 | 9.82445 | -25.25380 | 31988 ft | 472 kts | 211° |
| 2026-05-04 12:05 | 9.76669 | -25.28498 | 31986 ft | 472 kts | 211° |
| 2026-05-04 12:06 | 9.70847 | -25.31636 | 31994 ft | 471 kts | 210° |
| 2026-05-04 12:06 | 9.65041 | -25.34762 | 31992 ft | 472 kts | 211° |
| 2026-05-04 12:07 | 9.59259 | -25.37876 | 31985 ft | 472 kts | 210° |
| 2026-05-04 12:07 | 9.53425 | -25.41015 | 31990 ft | 471 kts | 210° |
| 2026-05-04 12:08 | 9.47643 | -25.44125 | 31982 ft | 471 kts | 210° |
| 2026-05-04 12:08 | 9.41840 | -25.47244 | 31989 ft | 471 kts | 210° |
| 2026-05-04 12:09 | 9.36070 | -25.50346 | 31991 ft | 470 kts | 210° |
| 2026-05-04 12:09 | 9.30285 | -25.53453 | 31985 ft | 470 kts | 210° |
| 2026-05-04 12:10 | 9.24502 | -25.56559 | 31984 ft | 471 kts | 210° |
| 2026-05-04 12:10 | 9.18682 | -25.59684 | 31988 ft | 471 kts | 210° |
| 2026-05-04 12:11 | 9.12883 | -25.62796 | 31984 ft | 471 kts | 210° |
| 2026-05-04 12:11 | 9.07090 | -25.65904 | 31986 ft | 470 kts | 209° |
| 2026-05-04 12:12 | 9.01332 | -25.68991 | 31988 ft | 470 kts | 209° |
| 2026-05-04 12:12 | 8.95542 | -25.72093 | 31987 ft | 470 kts | 209° |
| 2026-05-04 12:14 | 8.72392 | -25.84491 | 31985 ft | 471 kts | 209° |
| 2026-05-04 12:15 | 8.66599 | -25.87590 | 31986 ft | 470 kts | 209° |
| 2026-05-04 12:15 | 8.60832 | -25.90675 | 31988 ft | 470 kts | 209° |
| 2026-05-04 12:16 | 8.55021 | -25.93781 | 31987 ft | 470 kts | 209° |
| 2026-05-04 12:16 | 8.49261 | -25.96857 | 31984 ft | 470 kts | 209° |
| 2026-05-04 12:17 | 8.43449 | -25.99959 | 31977 ft | 469 kts | 209° |
| 2026-05-04 12:17 | 8.37678 | -26.03038 | 31968 ft | 469 kts | 209° |
| 2026-05-04 12:18 | 8.31885 | -26.06131 | 31967 ft | 469 kts | 209° |
| 2026-05-04 12:18 | 8.26121 | -26.09219 | 31965 ft | 469 kts | 209° |
| 2026-05-04 12:19 | 8.20347 | -26.12309 | 31965 ft | 469 kts | 209° |
| 2026-05-04 12:19 | 8.14580 | -26.15390 | 31965 ft | 470 kts | 209° |
| 2026-05-04 12:20 | 8.08759 | -26.18496 | 31966 ft | 470 kts | 209° |
| 2026-05-04 12:20 | 8.02990 | -26.21574 | 31965 ft | 470 kts | 209° |
| 2026-05-04 12:21 | 7.97208 | -26.24656 | 31966 ft | 470 kts | 209° |
| 2026-05-04 12:21 | 7.91411 | -26.27747 | 31965 ft | 470 kts | 209° |
| 2026-05-04 12:22 | 7.85615 | -26.30836 | 31966 ft | 471 kts | 209° |
| 2026-05-04 12:22 | 7.79824 | -26.33920 | 31965 ft | 471 kts | 209° |
| 2026-05-04 12:23 | 7.73998 | -26.37023 | 31965 ft | 471 kts | 209° |
| 2026-05-04 12:23 | 7.68199 | -26.40110 | 31965 ft | 470 kts | 209° |
| 2026-05-04 12:24 | 7.62406 | -26.43194 | 31963 ft | 471 kts | 209° |
| 2026-05-04 12:24 | 7.56608 | -26.46279 | 31965 ft | 472 kts | 209° |
| 2026-05-04 12:25 | 7.50777 | -26.49380 | 31964 ft | 471 kts | 209° |
| 2026-05-04 12:25 | 7.44990 | -26.52457 | 31963 ft | 471 kts | 209° |
| 2026-05-04 12:26 | 7.39145 | -26.55565 | 31964 ft | 472 kts | 209° |
| 2026-05-04 12:26 | 7.33344 | -26.58648 | 31964 ft | 472 kts | 209° |
| 2026-05-04 12:27 | 7.27513 | -26.61744 | 31965 ft | 472 kts | 209° |
| 2026-05-04 12:27 | 7.21716 | -26.64823 | 31963 ft | 473 kts | 209° |
| 2026-05-04 12:28 | 7.15850 | -26.67938 | 31965 ft | 473 kts | 209° |
| 2026-05-04 12:28 | 7.10023 | -26.71030 | 31963 ft | 473 kts | 209° |
| 2026-05-04 12:29 | 7.04214 | -26.74113 | 31963 ft | 472 kts | 209° |
| 2026-05-04 12:29 | 6.98392 | -26.77202 | 31963 ft | 472 kts | 209° |
| 2026-05-04 12:30 | 6.92578 | -26.80286 | 31964 ft | 473 kts | 209° |
| 2026-05-04 12:30 | 6.86718 | -26.83392 | 31964 ft | 474 kts | 209° |
| 2026-05-04 12:31 | 6.80891 | -26.86480 | 31965 ft | 474 kts | 209° |
| 2026-05-04 12:31 | 6.75025 | -26.89587 | 31964 ft | 474 kts | 209° |
| 2026-05-04 12:32 | 6.66265 | -26.94225 | 31964 ft | 474 kts | 209° |
| 2026-05-04 12:33 | 6.60426 | -26.97316 | 31965 ft | 473 kts | 209° |
| 2026-05-04 12:33 | 6.54581 | -27.00408 | 31965 ft | 472 kts | 208° |
| 2026-05-04 12:34 | 6.48772 | -27.03478 | 31965 ft | 473 kts | 208° |
| 2026-05-04 12:34 | 6.42932 | -27.06567 | 31966 ft | 474 kts | 208° |
| 2026-05-04 12:35 | 6.37300 | -27.09553 | 31966 ft | 474 kts | 208° |
| 2026-05-04 12:35 | 6.31482 | -27.12634 | 31967 ft | 474 kts | 208° |
| 2026-05-04 12:36 | 6.25637 | -27.15725 | 31965 ft | 474 kts | 208° |
| 2026-05-04 12:36 | 6.19772 | -27.18823 | 31965 ft | 474 kts | 208° |
| 2026-05-04 12:37 | 6.13949 | -27.21898 | 31966 ft | 474 kts | 208° |
| 2026-05-04 12:37 | 6.08090 | -27.24991 | 31969 ft | 474 kts | 208° |
| 2026-05-04 12:38 | 6.02214 | -27.28094 | 31969 ft | 475 kts | 208° |
| 2026-05-04 12:38 | 5.96386 | -27.31168 | 31971 ft | 475 kts | 208° |
| 2026-05-04 12:39 | 5.90508 | -27.34270 | 31971 ft | 475 kts | 208° |
| 2026-05-04 12:39 | 5.84632 | -27.37368 | 31972 ft | 475 kts | 208° |
| 2026-05-04 12:40 | 5.78786 | -27.40452 | 31968 ft | 475 kts | 208° |
| 2026-05-04 12:40 | 5.72928 | -27.43538 | 31964 ft | 476 kts | 208° |
| 2026-05-04 12:41 | 5.67030 | -27.46647 | 31960 ft | 476 kts | 208° |
| 2026-05-04 12:41 | 5.61185 | -27.49727 | 31962 ft | 476 kts | 208° |
| 2026-05-04 12:42 | 5.55311 | -27.52822 | 31958 ft | 476 kts | 208° |
| 2026-05-04 12:42 | 5.49392 | -27.55939 | 31955 ft | 477 kts | 208° |
| 2026-05-04 12:43 | 5.43527 | -27.59027 | 31952 ft | 477 kts | 208° |
| 2026-05-04 12:43 | 5.37614 | -27.62139 | 31955 ft | 477 kts | 208° |
| 2026-05-04 12:44 | 5.31728 | -27.65238 | 31959 ft | 478 kts | 208° |
| 2026-05-04 12:44 | 5.25825 | -27.68345 | 31961 ft | 477 kts | 208° |
| 2026-05-04 12:45 | 5.19951 | -27.71436 | 31960 ft | 477 kts | 208° |
| 2026-05-04 12:45 | 5.14065 | -27.74531 | 31960 ft | 477 kts | 208° |
| 2026-05-04 12:46 | 5.08176 | -27.77628 | 31961 ft | 477 kts | 208° |
| 2026-05-04 12:46 | 5.02262 | -27.80737 | 31962 ft | 478 kts | 208° |
| 2026-05-04 12:47 | 4.96361 | -27.83838 | 31962 ft | 478 kts | 208° |
| 2026-05-04 12:47 | 4.90456 | -27.86941 | 31960 ft | 479 kts | 208° |
| 2026-05-04 12:48 | 4.84574 | -27.90032 | 31963 ft | 479 kts | 208° |
| 2026-05-04 12:48 | 4.78638 | -27.93153 | 31964 ft | 478 kts | 208° |
| 2026-05-04 12:49 | 4.72761 | -27.96240 | 31962 ft | 479 kts | 208° |
| 2026-05-04 12:49 | 4.66834 | -27.99351 | 31961 ft | 479 kts | 208° |
| 2026-05-04 12:50 | 4.60940 | -28.02446 | 31960 ft | 479 kts | 208° |
| 2026-05-04 12:50 | 4.55000 | -28.05563 | 31965 ft | 479 kts | 208° |
| 2026-05-04 12:51 | 4.49091 | -28.08665 | 31966 ft | 480 kts | 208° |
| 2026-05-04 12:51 | 4.43149 | -28.11783 | 31967 ft | 480 kts | 208° |
| 2026-05-04 12:52 | 4.37223 | -28.14892 | 31966 ft | 481 kts | 208° |
| 2026-05-04 12:52 | 4.31306 | -28.17996 | 31966 ft | 481 kts | 208° |
| 2026-05-04 12:53 | 4.25365 | -28.21111 | 31966 ft | 481 kts | 207° |
| 2026-05-04 12:53 | 4.19403 | -28.24238 | 31966 ft | 481 kts | 207° |
| 2026-05-04 12:54 | 4.13480 | -28.27342 | 31966 ft | 481 kts | 207° |
| 2026-05-04 12:54 | 4.07526 | -28.30464 | 31966 ft | 482 kts | 207° |
| 2026-05-04 12:55 | 4.01610 | -28.33564 | 31966 ft | 481 kts | 207° |
| 2026-05-04 12:55 | 3.95646 | -28.36690 | 31966 ft | 481 kts | 207° |
| 2026-05-04 12:56 | 3.89695 | -28.39807 | 31966 ft | 482 kts | 207° |
| 2026-05-04 12:56 | 3.83776 | -28.42906 | 31966 ft | 482 kts | 207° |
| 2026-05-04 12:57 | 3.77823 | -28.46024 | 31966 ft | 482 kts | 207° |
| 2026-05-04 12:57 | 3.71870 | -28.49141 | 31966 ft | 482 kts | 207° |
| 2026-05-04 12:58 | 3.65908 | -28.52264 | 31966 ft | 481 kts | 207° |
| 2026-05-04 12:58 | 3.59954 | -28.55379 | 31966 ft | 481 kts | 207° |
| 2026-05-04 12:59 | 3.54021 | -28.58485 | 31966 ft | 482 kts | 207° |
| 2026-05-04 12:59 | 3.48085 | -28.61591 | 31966 ft | 482 kts | 207° |
| 2026-05-04 13:00 | 3.42118 | -28.64712 | 31966 ft | 482 kts | 207° |
| 2026-05-04 13:00 | 3.36180 | -28.67817 | 31966 ft | 482 kts | 207° |
| 2026-05-04 13:01 | 3.30237 | -28.70924 | 31966 ft | 482 kts | 207° |
| 2026-05-04 13:01 | 3.24289 | -28.74032 | 31966 ft | 481 kts | 207° |
| 2026-05-04 13:02 | 3.18330 | -28.77144 | 31966 ft | 482 kts | 207° |
| 2026-05-04 13:02 | 3.12375 | -28.80257 | 31966 ft | 482 kts | 207° |
| 2026-05-04 13:03 | 3.06411 | -28.83395 | 31962 ft | 482 kts | 207° |
| 2026-05-04 13:03 | 3.00488 | -28.86512 | 31953 ft | 481 kts | 207° |